M I D A S
Marine Information and Data Acquisition System
Tripno 322 of the Zeeleeuw from 2002-03-20 09:00:00 to 2002-03-20 13:32:00
Back to CruiseResearch ActivitiesStationsMapUnderway DataData graphs

EquipmentUnitsComment
TimeDGPSUTC
LatitudeDGPSDM.mWGS84
LongitudeDGPSDM.mWGS84
HeadingGyrodeg 
SOGDGPSknotsSpeed over ground
COGDGPSdegCourse over ground
DepthEcho soundermeters200 kHz
Missing or incorrect values are displayed as -999
Navigation data collected by the RV Zeeleeuw from 2002-03-20 09:00:00 to 2002-03-20 13:32:00
Time Latitude Longitude Heading SOG COG Depth
2002-03-20 09:01:02 51°13.597 2°56.098 2   280.2 6.1
2002-03-20 09:02:03 51°13.596 2°56.098 2.7   153.5 -999
2002-03-20 09:03:03 51°13.597 2°56.098 1.3   241.6 -999
2002-03-20 09:04:03 51°13.596 2°56.099 354.8 0.1 211 -999
2002-03-20 09:05:03 51°13.595 2°56.099 342.5   181 6.2
2002-03-20 09:06:03 51°13.605 2°56.06 345.8 2.9 292.1 -999
2002-03-20 09:07:02 51°13.623 2°55.999 343.3 0.4 29.3 8.4
2002-03-20 09:08:03 51°13.638 2°55.967 351 3.1 297.1 -999
2002-03-20 09:09:03 51°13.66 2°55.891 346.7 3.4 294.5 -999
2002-03-20 09:10:03 51°13.681 2°55.786 330.2 4.1 282 -999
2002-03-20 09:11:03 51°13.706 2°55.767 251 3.9 13.8 -999
2002-03-20 09:12:03 51°13.735 2°55.757 196.7 1.6 141.8 -999
2002-03-20 09:13:03 51°13.697 2°55.816 188.3 3 130.4 9
2002-03-20 09:14:03 51°13.679 2°55.845 191.8 0.6 136 9
2002-03-20 09:15:03 51°13.675 2°55.856 193.8 0.2 106.7 -999
2002-03-20 09:16:02 51°13.677 2°55.855 198.2 0.2 336.6 9.2
2002-03-20 09:17:03 51°13.696 2°55.832 191.2 2.6 315.8 -999
2002-03-20 09:18:02 51°13.742 2°55.749 188.7 4.4 311.8 9.4
2002-03-20 09:19:02 51°13.812 2°55.647 206.7 6 326 9.6
2002-03-20 09:20:03 51°13.909 2°55.575 214.8 7.3 337.7 9.3
2002-03-20 09:21:03 51°14.039 2°55.487 213.7 8.6 337 9
2002-03-20 09:22:03 51°14.162 2°55.388 206.3 8.1 330.3 9.3
2002-03-20 09:23:03 51°14.274 2°55.241 192.3 8.9 314.8 9.2
2002-03-20 09:24:03 51°14.368 2°55.058 177.8 8.8 302.4 9.3
2002-03-20 09:25:03 51°14.39 2°54.827 148.8 9.6 271.1 9
2002-03-20 09:26:02 51°14.364 2°54.555 126.3 11 249.7 8.6
2002-03-20 09:27:03 51°14.29 2°54.269 126.3 11.8 248.5 8.3
2002-03-20 09:28:03 51°14.21 2°53.975 122.3 12.4 245.3 8.2
2002-03-20 09:29:02 51°14.106 2°53.673 117.8 13.7 240.7 8.1
2002-03-20 09:30:01 51°13.997 2°53.355 118.3 14 240.9 8.3
2002-03-20 09:31:02 51°13.883 2°53.023 118.5 14.1 241.1 8.6
2002-03-20 09:32:03 51°13.77 2°52.689 118.7 14.1 241.7 9
2002-03-20 09:33:03 51°13.658 2°52.36 118.5 14.2 241.6 9.3
2002-03-20 09:34:03 51°13.546 2°52.031 119 14.1 241.3 9.3
2002-03-20 09:35:02 51°13.436 2°51.707 118.3 14.1 241.3 9.4
2002-03-20 09:36:03 51°13.323 2°51.372 118.2 14.2 242 9.4
2002-03-20 09:37:03 51°13.211 2°51.043 118.5 14.1 241.7 9.5
2002-03-20 09:38:03 51°13.098 2°50.715 118 14.1 241.4 9.7
2002-03-20 09:39:03 51°12.993 2°50.381 121.2 14.1 243.6 9.9
2002-03-20 09:40:03 51°12.889 2°50.045 120.5 14.2 243.4 10.1
2002-03-20 09:41:03 51°12.781 2°49.712 119.8 14.2 242.9 10.3
2002-03-20 09:42:02 51°12.678 2°49.38 120.5 14.2 243.8 10.4
2002-03-20 09:43:03 51°12.604 2°49.102 133.3 8.2 253.5 10.9
2002-03-20 09:44:03 51°12.591 2°48.956 145.8 3.5 264.7 11.1
2002-03-20 09:45:03 51°12.585 2°48.953 154 0.6 237.2 10.4
2002-03-20 09:46:03 51°12.581 2°48.929 150 0.8 248.4 10.4
2002-03-20 09:47:03 51°12.577 2°48.915 157.3 0.5 237.8 11
2002-03-20 09:48:03 51°12.575 2°48.903 172.2 0.8 270.5 11.1
2002-03-20 09:49:02 51°12.58 2°48.872 176.5 1.4 286.8 11.1
2002-03-20 09:50:03 51°12.586 2°48.836 170.5 1.4 284.5 11.2
2002-03-20 09:51:02 51°12.592 2°48.8 183.2 1.5 290.8 11.2
2002-03-20 09:52:02 51°12.605 2°48.765 199.5 1.6 306.8 11.3
2002-03-20 09:53:02 51°12.623 2°48.736 214.5 1.5 320.2 11.3
2002-03-20 09:54:02 51°12.644 2°48.718 234.3 1.4 341.9 11.3
2002-03-20 09:55:03 51°12.667 2°48.715 252.5 1.3 6 11.1
2002-03-20 09:56:03 51°12.687 2°48.726 272.7 1.3 27 11.4
2002-03-20 09:57:03 51°12.702 2°48.75 296 1.3 58.5 11.3
2002-03-20 09:58:03 51°12.711 2°48.785 297.8 1.5 67.7 11.3
2002-03-20 09:59:03 51°12.721 2°48.818 293.7 1.3 62.7 11.3
2002-03-20 10:00:03 51°12.729 2°48.845 295.8 1 63 11.3
2002-03-20 10:01:03 51°12.734 2°48.869 301.5 0.9 75 11.2
2002-03-20 10:02:03 51°12.737 2°48.892 302.8 0.8 79.1 11.2
2002-03-20 10:03:02 51°12.741 2°48.912 295.5 0.8 67 11.2
2002-03-20 10:04:02 51°12.745 2°48.93 296 0.7 70 11.3
2002-03-20 10:05:03 51°12.749 2°48.948 296.7 0.7 72.5 11.2
2002-03-20 10:06:01 51°12.752 2°48.967 301.8 0.8 75.1 11.2
2002-03-20 10:07:03 51°12.756 2°48.994 306.2 1.1 79.9 11.2
2002-03-20 10:08:03 51°12.761 2°49.025 304.2 1.2 74.8 11.2
2002-03-20 10:09:03 51°12.765 2°49.059 316.2 1.3 91.3 11.2
2002-03-20 10:10:03 51°12.757 2°49.094 329.8 1.4 111.4 11.1
2002-03-20 10:11:03 51°12.754 2°49.126 311.5 1.1 90.5 11.1
2002-03-20 10:12:03 51°12.756 2°49.158 309 1.3 87.7 11.1
2002-03-20 10:13:02 51°12.759 2°49.191 304.7 1.3 78.8 11
2002-03-20 10:14:03 51°12.764 2°49.225 302.2 1.3 75.4 11
2002-03-20 10:15:03 51°12.771 2°49.257 298.3 1.3 67.9 11
2002-03-20 10:16:03 51°12.78 2°49.287 296 1.3 66.1 11
2002-03-20 10:17:03 51°12.79 2°49.317 293 1.3 62.4 11
2002-03-20 10:18:03 51°12.8 2°49.348 59.3 1.3 66.4 10.9
2002-03-20 10:19:03 51°12.808 2°49.381 67.5 1.3 73.5 10.9
2002-03-20 10:20:03 51°12.809 2°49.416 82.2 1.4 97.4 10.9
2002-03-20 10:21:03 51°12.801 2°49.451 99.5 1.4 119.8 10.8
2002-03-20 10:22:03 51°12.786 2°49.48 109.5 1.4 133.9 10.8
2002-03-20 10:23:02 51°12.769 2°49.501 120.2 1.3 147.2 10.7
2002-03-20 10:24:03 51°12.748 2°49.518 131.8 1.5 155.9 10.7
2002-03-20 10:25:03 51°12.723 2°49.532 143.5 1.7 164.5 10.5
2002-03-20 10:26:03 51°12.695 2°49.54 161.2 1.7 175.5 10.4
2002-03-20 10:27:03 51°12.668 2°49.536 177.5 1.6 189.6 10.2
2002-03-20 10:28:03 51°12.643 2°49.527 191.8 1.5 198.7 10.1
2002-03-20 10:29:03 51°12.62 2°49.515 200.7 1.4 201.1 10
2002-03-20 10:30:03 51°12.599 2°49.499 208 1.4 205 9.9
2002-03-20 10:31:03 51°12.579 2°49.482 213.7 1.4 206.6 9.8
2002-03-20 10:32:03 51°12.558 2°49.465 218.5 1.3 210.5 9.8
2002-03-20 10:33:03 51°12.539 2°49.449 221.3 1.2 210.3 9.8
2002-03-20 10:34:03 51°12.521 2°49.437 218.3 1.1 203.4 9.7
2002-03-20 10:35:03 51°12.504 2°49.427 212.8 1.1 199.1 9.6
2002-03-20 10:36:03 51°12.485 2°49.417 209 1.2 198.5 9.5
2002-03-20 10:37:03 51°12.463 2°49.404 212.8 1.5 204.1 9.3
2002-03-20 10:38:02 51°12.441 2°49.385 223.5 1.5 211.4 9.2
2002-03-20 10:39:03 51°12.421 2°49.363 230 1.4 216.9 9.1
2002-03-20 10:40:03 51°12.403 2°49.343 227.8 1.2 212.4 9.1
2002-03-20 10:41:03 51°12.388 2°49.33 222 1 203.8 9
2002-03-20 10:42:03 51°12.373 2°49.32 213.3 0.9 198.1 8.9
2002-03-20 10:43:03 51°12.359 2°49.313 197.7 0.9 192.7 8.9
2002-03-20 10:44:03 51°12.334 2°49.302 202 3.3 201.3 8.7
2002-03-20 10:45:03 51°12.316 2°49.171 305.3 6.3 293.1 8.9
2002-03-20 10:46:03 51°12.407 2°49.018 324 8.8 316.1 9.8
2002-03-20 10:47:03 51°12.52 2°48.893 356.8 6.5 345 10.9
2002-03-20 10:48:02 51°12.562 2°48.893 51.2 0.6 22.1 11.2
2002-03-20 10:49:02 51°12.564 2°48.906 68.5 0.5 87.6 11.1
2002-03-20 10:50:03 51°12.565 2°48.919 64.3 0.5 78.1 11
2002-03-20 10:51:03 51°12.565 2°48.932 58.2 0.4 72.6 11.1
2002-03-20 10:52:03 51°12.568 2°48.941 50.8 0.4 50.1 11
2002-03-20 10:53:03 51°12.572 2°48.947 43.2 0.3 31.7 11.1
2002-03-20 10:54:03 51°12.576 2°48.949 35 0.3 358.9 11
2002-03-20 10:55:03 51°12.581 2°48.946 25.7 0.4 329.7 11.2
2002-03-20 10:56:03 51°12.585 2°48.939 15.8 0.4 302.3 11.1
2002-03-20 10:57:02 51°12.588 2°48.93 9.2 0.4 306.6 11.2
2002-03-20 10:58:03 51°12.615 2°48.95 55.7 2.6 47.8 11.3
2002-03-20 10:59:02 51°12.631 2°49.043 85.3 3.9 87.9 11.1
2002-03-20 11:00:03 51°12.615 2°49.127 112 2.9 121.5 11
2002-03-20 11:01:03 51°12.579 2°49.173 137.3 2.8 150.7 10.7
2002-03-20 11:02:03 51°12.533 2°49.194 162.2 2.9 171.2 10.3
2002-03-20 11:03:01 51°12.484 2°49.192 182.7 3.1 188 10.1
2002-03-20 11:04:02 51°12.429 2°49.155 213.3 3.8 212.9 9.8
2002-03-20 11:05:03 51°12.384 2°49.08 240.2 3.9 235.3 9.7
2002-03-20 11:06:02 51°12.356 2°48.986 255.7 4 248.7 9.7
2002-03-20 11:07:03 51°12.335 2°48.895 257.5 3.1 249.4 9.9
2002-03-20 11:08:03 51°12.318 2°48.834 251.8 2.2 242.9 9.9
2002-03-20 11:09:03 51°12.301 2°48.79 244.5 1.8 233.2 10
2002-03-20 11:10:03 51°12.282 2°48.749 250.7 2.1 238.9 9.9
2002-03-20 11:11:03 51°12.265 2°48.694 256.2 2.4 245.6 10
2002-03-20 11:12:02 51°12.246 2°48.635 247.2 2.6 240.3 9.9
2002-03-20 11:13:03 51°12.222 2°48.572 243.5 2.8 237 9.9
2002-03-20 11:14:03 51°12.197 2°48.508 245.5 2.8 237.8 10
2002-03-20 11:15:03 51°12.173 2°48.443 247.5 2.9 241.4 9.9
2002-03-20 11:16:03 51°12.149 2°48.376 249.7 2.9 241.4 10
2002-03-20 11:17:03 51°12.125 2°48.306 247.5 3 240.7 9.9
2002-03-20 11:18:03 51°12.1 2°48.236 245.8 3 239.5 9.9
2002-03-20 11:19:03 51°12.073 2°48.169 242.7 3 236.2 9.9
2002-03-20 11:20:03 51°12.045 2°48.104 239.3 3 234 9.9
2002-03-20 11:21:03 51°12.016 2°48.039 244.2 3 236 9.8
2002-03-20 11:22:03 51°11.999 2°47.969 272.3 2.7 258 9.9
2002-03-20 11:23:03 51°12.006 2°47.904 311.5 2.3 293.1 10.1
2002-03-20 11:24:03 51°12.028 2°47.854 330.5 2.4 312.9 10.4
2002-03-20 11:25:03 51°12.06 2°47.811 338 2.5 320.8 10.7
2002-03-20 11:26:03 51°12.092 2°47.779 357.2 2.2 337.5 11
2002-03-20 11:27:03 51°12.126 2°47.772 19 2 2.1 11.4
2002-03-20 11:28:03 51°12.155 2°47.79 41.5 1.9 32.1 11.5
2002-03-20 11:29:03 51°12.175 2°47.834 68.7 2.1 68.6 11.6
2002-03-20 11:30:03 51°12.186 2°47.889 67.5 2.2 71.3 11.3
2002-03-20 11:31:03 51°12.198 2°47.94 65.5 2 69 11.6
2002-03-20 11:32:02 51°12.205 2°47.99 77 2 83.9 11.6
2002-03-20 11:33:01 51°12.2 2°48.04 94 2 104.3 11.4
2002-03-20 11:34:03 51°12.189 2°48.094 94.3 2.1 106.9 11.2
2002-03-20 11:35:03 51°12.18 2°48.146 92.7 2 104.6 10.9
2002-03-20 11:36:03 51°12.176 2°48.199 87.5 2 97.2 10.8
2002-03-20 11:37:03 51°12.175 2°48.249 78.3 1.9 88.7 10.7
2002-03-20 11:38:01 51°12.176 2°48.298 80.3 2 89.3 10.5
2002-03-20 11:39:03 51°12.176 2°48.353 86.2 2 94.4 10.3
2002-03-20 11:40:02 51°12.166 2°48.405 104.3 2.1 114.8 10.1
2002-03-20 11:41:01 51°12.145 2°48.45 124.2 2.2 135 9.9
2002-03-20 11:42:03 51°12.114 2°48.483 143.3 2.2 155.2 9.6
2002-03-20 11:43:03 51°12.08 2°48.497 160.3 2.1 170.7 9.3
2002-03-20 11:44:03 51°12.043 2°48.501 173.2 2.3 178.2 9
2002-03-20 11:45:03 51°12.004 2°48.498 181.5 2.1 184.9 8.7
2002-03-20 11:46:03 51°11.974 2°48.489 190 1.8 192.6 8.6
2002-03-20 11:47:03 51°11.944 2°48.474 205.5 1.8 202.2 8.5
2002-03-20 11:48:03 51°11.914 2°48.441 230 2.5 224.5 8.4
2002-03-20 11:49:03 51°11.896 2°48.373 273.5 3 262.2 8.5
2002-03-20 11:50:03 51°11.903 2°48.286 296.7 3.4 287.6 8.6
2002-03-20 11:51:03 51°11.928 2°48.2 305.7 3.7 297.1 8.9
2002-03-20 11:52:03 51°11.959 2°48.116 312.8 3.7 304.1 9.5
2002-03-20 11:53:03 51°11.989 2°48.048 314.7 2.7 305 9.8
2002-03-20 11:54:02 51°12.005 2°47.998 305.3 1.9 292.8 10.1
2002-03-20 11:55:03 51°12.015 2°47.957 304.2 1.5 288.3 10.3
2002-03-20 11:56:03 51°12.022 2°47.919 299 1.8 286.2 10.5
2002-03-20 11:57:01 51°12.029 2°47.87 292.7 1.9 281.9 10.8
2002-03-20 11:58:03 51°12.035 2°47.821 289.5 1.8 278.2 10.9
2002-03-20 11:59:01 51°12.037 2°47.772 285.3 2 272.3 11
2002-03-20 12:00:03 51°12.039 2°47.718 284.5 2 271.7 11.3
2002-03-20 12:01:03 51°12.041 2°47.664 283.5 2.1 273.1 11.4
2002-03-20 12:02:03 51°12.041 2°47.609 282.2 2.1 270.3 11.6
2002-03-20 12:03:03 51°12.04 2°47.552 279.3 2.1 267.3 11.7
2002-03-20 12:04:02 51°12.039 2°47.495 278.5 2.2 268 11.8
2002-03-20 12:05:03 51°12.036 2°47.435 276.5 2.2 263.6 12
2002-03-20 12:06:02 51°12.033 2°47.377 274.8 2.2 265.3 12.2
2002-03-20 12:07:03 51°12.029 2°47.316 274.7 2.3 264.7 12
2002-03-20 12:08:03 51°12.025 2°47.256 274.7 2.3 264.7 12.4
2002-03-20 12:09:03 51°12.021 2°47.196 273.5 2.3 264.3 12.3
2002-03-20 12:10:03 51°12.016 2°47.134 271.3 2.4 263 12.4
2002-03-20 12:11:03 51°12.011 2°47.072 269.7 2.4 261.2 12.5
2002-03-20 12:12:03 51°12.004 2°47.006 268.8 2.5 259 12.6
2002-03-20 12:13:01 51°11.995 2°46.945 265.7 2.3 255.5 12.6
2002-03-20 12:14:03 51°11.987 2°46.89 266.5 2 255.5 12.6
2002-03-20 12:15:03 51°11.98 2°46.842 270.7 1.8 259.7 12.7
2002-03-20 12:16:03 51°11.976 2°46.798 273.2 1.6 261.7 12.7
2002-03-20 12:17:03 51°11.972 2°46.759 272.2 1.4 261.9 12.6
2002-03-20 12:18:03 51°11.968 2°46.724 271 1.4 260.7 12.8
2002-03-20 12:19:03 51°11.963 2°46.682 268.2 1.8 260 12.7
2002-03-20 12:20:02 51°11.952 2°46.633 246.3 2 242.1 12.8
2002-03-20 12:21:03 51°11.929 2°46.596 209.7 1.9 212.4 12.8
2002-03-20 12:22:03 51°11.898 2°46.583 173.8 2 183.6 12.8
2002-03-20 12:23:03 51°11.864 2°46.592 151.8 2.1 161.7 12.7
2002-03-20 12:24:03 51°11.831 2°46.618 136.7 2.2 149.2 12.6
2002-03-20 12:25:03 51°11.805 2°46.656 117.8 2.1 130.1 12.3
2002-03-20 12:26:03 51°11.789 2°46.704 97.7 2 110.8 12.1
2002-03-20 12:27:03 51°11.779 2°46.758 95.3 2.2 105.5 11.9
2002-03-20 12:28:03 51°11.771 2°46.815 93 2.2 100.5 11.6
2002-03-20 12:29:03 51°11.759 2°46.872 105.7 2.3 113.5 11.3
2002-03-20 12:30:01 51°11.739 2°46.922 117.5 2.2 126.4 10.9
2002-03-20 12:31:03 51°11.715 2°46.962 129.2 2 138.8 10.6
2002-03-20 12:32:03 51°11.689 2°46.993 140 2 147.1 10.2
2002-03-20 12:33:03 51°11.629 2°47.046 165.3 5.5 165.3 9.3
2002-03-20 12:34:03 51°11.562 2°47.017 210.2 3.2 205.9 8.9
2002-03-20 12:35:02 51°11.524 2°46.995 200.5 2.1 195.9 8.6
2002-03-20 12:36:03 51°11.488 2°46.987 173 2.6 176.2 8.4
2002-03-20 12:37:03 51°11.45 2°47.033 118.5 3.3 124.6 8.2
2002-03-20 12:38:03 51°11.427 2°47.127 98.2 4 100.6 8.1
2002-03-20 12:39:03 51°11.435 2°47.236 71.7 4.2 71.7 8.2
2002-03-20 12:40:03 51°11.454 2°47.308 66.2 0.4 69.1 8.3
2002-03-20 12:41:03 51°11.453 2°47.315 64.5 0.4 90.3 8.4
2002-03-20 12:42:03 51°11.454 2°47.329 61.2 0.6 77 8.4
2002-03-20 12:43:03 51°11.456 2°47.347 55.5 0.7 78.5 8.3
2002-03-20 12:44:03 51°11.461 2°47.365 49 0.7 62.5 8.5
2002-03-20 12:45:03 51°11.467 2°47.382 39.7 0.7 57.6 8.4
2002-03-20 12:46:03 51°11.475 2°47.396 31.8 0.7 40.9 8.5
2002-03-20 12:47:03 51°11.484 2°47.407 23.5 0.6 37.6 8.5
2002-03-20 12:48:03 51°11.491 2°47.416 15.8 0.5 35.8 8.4
2002-03-20 12:49:03 51°11.499 2°47.423 7.8 0.5 23.3 8.5
2002-03-20 12:50:01 51°11.505 2°47.428 1.5 0.4 33.6 8.6
2002-03-20 12:51:01 51°11.51 2°47.433 358.3 0.3 46.8 8.6
2002-03-20 12:52:03 51°11.514 2°47.439 356.3 0.3 52.5 8.5
2002-03-20 12:53:03 51°11.519 2°47.445 352.3 0.5 24 8.6
2002-03-20 12:54:03 51°11.6 2°47.531 60.7 9.3 57.2 8.6
2002-03-20 12:55:03 51°11.714 2°47.766 55.8 11.7 53 8.7
2002-03-20 12:56:03 51°11.821 2°48.044 61.3 12.8 58.9 8.9
2002-03-20 12:57:03 51°11.94 2°48.335 57.8 13.1 56.5 9.1
2002-03-20 12:58:03 51°12.059 2°48.629 59 13.1 56.2 9.4
2002-03-20 12:59:03 51°12.178 2°48.919 60.2 13.1 56.8 9.5
2002-03-20 13:00:01 51°12.293 2°49.2 60.8 13.1 56.9 9.7
2002-03-20 13:01:03 51°12.414 2°49.503 59.2 13.2 57.1 9.7
2002-03-20 13:02:03 51°12.534 2°49.793 61.3 13.1 57.9 9.8
2002-03-20 13:03:03 51°12.651 2°50.087 61.5 13.1 57.9 10
2002-03-20 13:04:03 51°12.77 2°50.378 59.2 13.1 56.6 10.1
2002-03-20 13:05:03 51°12.887 2°50.67 57.8 13.1 56.4 10.2
2002-03-20 13:06:03 51°13.006 2°50.963 59.8 13.1 56.6 10
2002-03-20 13:07:03 51°13.126 2°51.254 60.5 13.1 57.2 10.3
2002-03-20 13:08:03 51°13.241 2°51.55 61.3 13.3 58.1 10.3
2002-03-20 13:09:03 51°13.36 2°51.845 60.5 13.3 57.2 10.5
2002-03-20 13:10:03 51°13.477 2°52.138 59.7 13.1 58.4 10.4
2002-03-20 13:11:03 51°13.595 2°52.43 59.7 13.1 58.4 10.4
2002-03-20 13:12:03 51°13.715 2°52.724 58.7 13.2 56.8 10.2
2002-03-20 13:13:03 51°13.832 2°53.017 58.3 13.1 56.7 10
2002-03-20 13:14:03 51°13.95 2°53.311 58.8 13.2 55.9 9.7
2002-03-20 13:15:03 51°14.067 2°53.606 60 13.2 57.7 9.6
2002-03-20 13:16:03 51°14.177 2°53.893 58.5 12.3 57.1 9.5
2002-03-20 13:17:03 51°14.288 2°54.161 58.3 12.2 57 9.8
2002-03-20 13:18:03 51°14.361 2°54.447 80.8 11.5 78.4 10
2002-03-20 13:19:03 51°14.393 2°54.748 86 11.4 82.8 10.4
2002-03-20 13:20:03 51°14.369 2°55.031 116.8 10.2 110.1 10.5
2002-03-20 13:21:03 51°14.278 2°55.227 130.5 8.9 129 10.9
2002-03-20 13:22:03 51°14.199 2°55.341 150.8 5 148.3 10.8
2002-03-20 13:23:03 51°14.144 2°55.394 153.7 3.4 149.9 10.6
2002-03-20 13:24:03 51°14.089 2°55.436 156.3 4.1 154.1 10.7
2002-03-20 13:25:03 51°14.023 2°55.487 157 4.6 154.6 10.7
2002-03-20 13:26:03 51°13.938 2°55.554 157.7 7.2 155.1 10.7
2002-03-20 13:27:03 51°13.816 2°55.644 156.2 8 154.7 11.1
2002-03-20 13:28:03 51°13.748 2°55.718 136.8 3.7 137.1 11.1
2002-03-20 13:29:02 51°13.72 2°55.781 124.2 2.7 118.9 10.9
2002-03-20 13:30:03 51°13.702 2°55.836 120.2 2.1 116 8.9
2002-03-20 13:31:02 51°13.694 2°55.883 108.2 1.8 100.5 9.1